createdAt,value
2019-04-22T00:01:40.132Z,101264.27
2019-04-22T00:04:45.328Z,101262.75
2019-04-22T00:07:51.470Z,101266.94
2019-04-22T00:10:45.347Z,101263.22
2019-04-22T00:13:33.775Z,101255.59
2019-04-22T00:16:27.436Z,101252.81
2019-04-22T00:22:08.089Z,101254.89
2019-04-22T00:25:03.325Z,101247.37
2019-04-22T00:27:57.554Z,101253.09
2019-04-22T00:30:41.937Z,101256.83
2019-04-22T00:33:34.282Z,101253.29
2019-04-22T00:36:27.532Z,101244.96
2019-04-22T00:39:22.096Z,101240.58
2019-04-22T00:42:09.976Z,101241.72
2019-04-22T00:45:06.110Z,101222.82
2019-04-22T00:47:50.805Z,101239.44
2019-04-22T00:50:48.223Z,101237.70
2019-04-22T00:53:41.588Z,101246.69
2019-04-22T00:56:27.730Z,101241.71
2019-04-22T00:59:17.247Z,101242.27
2019-04-22T01:02:18.527Z,101233.67
2019-04-22T01:05:07.711Z,101232.33
2019-04-22T01:08:04.423Z,101229.66
2019-04-22T01:10:50.051Z,101236.70
2019-04-22T01:13:38.289Z,101231.34
2019-04-22T01:16:31.955Z,101232.67
2019-04-22T01:19:23.786Z,101231.70
2019-04-22T01:22:17.641Z,101231.55
2019-04-22T01:25:03.667Z,101211.13
2019-04-22T01:27:51.251Z,101227.07
2019-04-22T01:30:35.014Z,101218.38
2019-04-22T01:33:25.970Z,101219.87
2019-04-22T01:36:33.488Z,101218.06
2019-04-22T01:39:25.068Z,101212.81
2019-04-22T01:42:15.756Z,101218.54
2019-04-22T01:45:13.856Z,101211.67
2019-04-22T01:48:02.918Z,101216.48
2019-04-22T01:50:54.946Z,101211.86
2019-04-22T01:53:56.569Z,101211.95
2019-04-22T01:56:41.136Z,101212.63
2019-04-22T01:59:25.687Z,101202.81
2019-04-22T02:02:23.319Z,101201.98
2019-04-22T02:05:18.975Z,101204.92
2019-04-22T02:08:15.137Z,101203.13
2019-04-22T02:11:01.067Z,101199.78
2019-04-22T02:13:52.350Z,101199.02
2019-04-22T02:16:49.786Z,101190.82
2019-04-22T02:19:37.765Z,101195.20
2019-04-22T02:22:41.730Z,101167.11
2019-04-22T02:25:24.164Z,101193.75
2019-04-22T02:28:18.426Z,101188.77
2019-04-22T02:31:20.646Z,101185.52
2019-04-22T02:36:50.896Z,101191.84
2019-04-22T02:39:41.041Z,101189.33
2019-04-22T02:42:27.212Z,101186.48
2019-04-22T02:45:28.785Z,101185.52
2019-04-22T02:48:36.795Z,101186.20
2019-04-22T02:51:22.205Z,101184.59
2019-04-22T02:56:43.837Z,101181.66
2019-04-22T02:59:53.913Z,101180.69
2019-04-22T03:02:54.631Z,101180.39
2019-04-22T03:05:36.507Z,101173.91
2019-04-22T03:08:23.599Z,101177.15
2019-04-22T03:16:50.439Z,101179.25
2019-04-22T03:22:42.950Z,101177.81
2019-04-22T03:28:29.295Z,101176.78
2019-04-22T03:35:20.014Z,101178.31
2019-04-22T03:40:37.318Z,101182.89
2019-04-22T03:43:27.434Z,101189.38
2019-04-22T03:46:14.682Z,101187.48
2019-04-22T03:49:24.004Z,101193.09
2019-04-22T03:57:51.987Z,101202.66
2019-04-22T04:03:23.330Z,101204.04
2019-04-22T04:06:18.022Z,101208.11
2019-04-22T04:09:18.417Z,101209.74
2019-04-22T04:15:05.205Z,101222.55
2019-04-22T04:20:37.325Z,101216.34
2019-04-22T04:23:37.470Z,101216.61
2019-04-22T04:26:26.429Z,101220.16
2019-04-22T04:29:27.195Z,101217.48
2019-04-22T04:32:18.881Z,101219.42
2019-04-22T04:37:51.880Z,101226.82
2019-04-22T04:43:35.051Z,101217.38
2019-04-22T04:46:47.333Z,101222.63
2019-04-22T04:49:18.879Z,101228.75
2019-04-22T04:52:19.411Z,101232.39
2019-04-22T04:58:13.783Z,101231.66
2019-04-22T05:06:36.697Z,101226.34
2019-04-22T05:12:30.410Z,101234.09
2019-04-22T05:15:04.151Z,101234.09
2019-04-22T05:17:58.098Z,101250.16
2019-04-22T05:20:59.689Z,101244.30
2019-04-22T05:23:40.085Z,101249.91
2019-04-22T05:26:27.689Z,101245.09
2019-04-22T05:29:22.153Z,101239.48
2019-04-22T05:32:09.284Z,101238.88
2019-04-22T05:35:00.518Z,101248.77
2019-04-22T05:37:57.996Z,101250.89
2019-04-22T05:40:34.909Z,101242.48
2019-04-22T05:43:38.657Z,101241.85
2019-04-22T05:46:28.602Z,101240.55
2019-04-22T05:49:14.936Z,101248.62
2019-04-22T05:52:11.110Z,101246.25
2019-04-22T05:55:08.502Z,101236.47
2019-04-22T05:57:59.705Z,101238.08
2019-04-22T06:01:21.464Z,101237.29
2019-04-22T06:06:42.986Z,101241.95
2019-04-22T06:09:32.326Z,101242.39
2019-04-22T06:12:23.420Z,101242.85
2019-04-22T06:15:22.283Z,101235.12
2019-04-22T06:21:07.114Z,101245.30
2019-04-22T06:27:01.604Z,101238.55
2019-04-22T06:29:36.613Z,101242.80
2019-04-22T06:32:38.148Z,101242.67
2019-04-22T06:35:31.134Z,101237.45
2019-04-22T06:41:18.276Z,101242.39
2019-04-22T06:44:04.756Z,101239.08
2019-04-22T06:46:52.570Z,101237.50
2019-04-22T06:49:53.059Z,101249.34
2019-04-22T06:52:38.611Z,101252.52
2019-04-22T06:55:35.695Z,101241.11
2019-04-22T06:58:21.771Z,101251.30
2019-04-22T07:01:24.223Z,101260.22
2019-04-22T07:04:14.524Z,101250.45
2019-04-22T07:07:02.194Z,101262.12
2019-04-22T07:10:03.522Z,101262.90
